Time;durP1;ratioP1;P1;durP2;ratioP2;P2;SDS_P1;SDS_P2;PMS_P1;PMS_P2;Temp;Humidity;BMP_temperature;BMP_pressure;BME280_temperature;BME280_humidity;BME280_pressure;Samples;Min_cycle;Max_cycle;Signal;HPM_P1;HPM_P2
2023/09/25 00:01:59;;;;;;;0.13;0.13;;;;;;;16.38;99.54;100473.06;5022088;28;20072;-69
2023/09/25 00:04:25;;;;;;;0.10;0.10;;;;;;;16.30;99.65;100467.13;5028276;28;20048;-65
2023/09/25 00:06:52;;;;;;;0.20;0.20;;;;;;;16.38;99.61;100484.94;5026982;28;20128;-67
2023/09/25 00:09:18;;;;;;;0.20;0.20;;;;;;;16.41;99.49;100489.06;5023173;28;20052;-69
2023/09/25 00:11:45;;;;;;;0.20;0.20;;;;;;;16.44;98.50;100488.47;5040826;28;20057;-68
2023/09/25 00:14:12;;;;;;;0.20;0.20;;;;;;;16.50;98.02;100473.47;5036426;28;20041;-66
2023/09/25 00:16:38;;;;;;;0.20;0.20;;;;;;;16.53;96.84;100477.56;5021722;28;20049;-67
2023/09/25 00:19:06;;;;;;;0.20;0.20;;;;;;;16.62;95.97;100489.56;5022446;28;20052;-68
2023/09/25 00:21:32;;;;;;;0.20;0.20;;;;;;;16.55;94.89;100461.53;5033590;28;20551;-65
2023/09/25 00:23:58;;;;;;;0.20;0.20;;;;;;;16.81;94.20;100495.09;5038528;28;20154;-65
2023/09/25 00:26:25;;;;;;;0.20;0.20;;;;;;;16.87;93.17;100502.19;5020621;28;20036;-66
2023/09/25 00:28:52;;;;;;;;;;;;;;;16.89;92.59;100501.88;5001172;28;20140;-66
2023/09/25 00:31:21;;;;;;;;;;;;;;;16.93;92.03;100500.13;5025108;28;19924;-66
2023/09/25 00:33:47;;;;;;;0.20;0.20;;;;;;;16.94;91.09;100504.56;5033068;28;19940;-69
2023/09/25 00:36:15;;;;;;;0.20;0.20;;;;;;;16.97;90.73;100503.97;5039551;28;20357;-68
2023/09/25 00:38:41;;;;;;;0.20;0.20;;;;;;;17.04;90.52;100508.28;5037214;28;20595;-67
2023/09/25 00:41:08;;;;;;;0.20;0.20;;;;;;;17.09;90.07;100508.19;5023070;28;20068;-68
2023/09/25 00:43:34;;;;;;;0.20;0.20;;;;;;;17.08;90.33;100506.56;5038479;28;20132;-69
2023/09/25 00:46:02;;;;;;;0.20;0.20;;;;;;;17.09;90.38;100509.03;5004696;28;20050;-67
2023/09/25 00:48:30;;;;;;;0.20;0.20;;;;;;;17.11;90.78;100531.66;5044804;28;20049;-67
2023/09/25 00:50:59;;;;;;;0.20;0.20;;;;;;;17.09;91.12;100528.38;5030442;28;20152;-69
2023/09/25 00:53:29;;;;;;;0.20;0.20;;;;;;;17.01;90.70;100527.13;5049821;28;20136;-69
2023/09/25 00:55:56;;;;;;;0.20;0.20;;;;;;;16.95;90.72;100541.28;5050236;28;20815;-68
2023/09/25 00:58:25;;;;;;;0.20;0.20;;;;;;;16.86;90.83;100532.84;4993758;28;20215;-69
2023/09/25 01:00:52;;;;;;;0.20;0.20;;;;;;;16.79;90.98;100537.94;5032627;28;20173;-69
2023/09/25 01:03:18;;;;;;;0.20;0.20;;;;;;;16.70;90.58;100538.59;5022754;28;20051;-68
2023/09/25 01:05:45;;;;;;;0.20;0.20;;;;;;;16.61;90.47;100550.63;5026186;28;20071;-69
2023/09/25 01:08:12;;;;;;;0.20;0.20;;;;;;;16.49;90.21;100537.25;5039681;28;20156;-70
2023/09/25 01:10:42;;;;;;;0.20;0.20;;;;;;;16.40;90.03;100531.56;5029168;28;20334;-69
2023/09/25 01:13:10;;;;;;;0.20;0.20;;;;;;;16.34;90.46;100539.09;5026657;28;20076;-69
2023/09/25 01:15:36;;;;;;;;;;;;;;;16.33;90.19;100536.63;5039997;28;20052;-68
2023/09/25 01:18:03;;;;;;;0.20;0.20;;;;;;;16.29;89.65;100542.75;5049787;28;20019;-66
2023/09/25 01:20:29;;;;;;;0.20;0.20;;;;;;;16.29;89.17;100545.50;5048988;28;20048;-66
2023/09/25 01:22:57;;;;;;;0.20;0.20;;;;;;;16.33;88.91;100558.69;5022784;28;20579;-69
2023/09/25 01:25:23;;;;;;;0.20;0.20;;;;;;;16.35;88.72;100562.81;5038997;28;20069;-65
2023/09/25 01:27:50;;;;;;;0.20;0.20;;;;;;;16.40;88.80;100562.75;5042845;28;20041;-69
2023/09/25 01:30:17;;;;;;;0.20;0.20;;;;;;;16.41;88.32;100560.81;5031742;28;20048;-69
2023/09/25 01:32:45;;;;;;;0.10;0.10;;;;;;;16.47;87.53;100565.13;5042947;28;20995;-69
2023/09/25 01:35:14;;;;;;;0.20;0.20;;;;;;;16.47;86.46;100567.91;5009817;28;20076;-69
2023/09/25 01:37:41;;;;;;;0.20;0.20;;;;;;;16.45;85.75;100572.91;5043967;28;20055;-68
2023/09/25 01:40:17;;;;;;;0.10;0.10;;;;;;;16.45;85.39;100572.91;5052202;28;20045;-69
2023/09/25 01:42:45;;;;;;;;;;;;;;;16.47;85.22;100569.81;5017886;28;20504;-69
2023/09/25 01:45:13;;;;;;;0.20;0.20;;;;;;;16.43;84.66;100564.09;5002756;28;20380;-69
2023/09/25 01:47:40;;;;;;;0.20;0.20;;;;;;;16.36;84.10;100571.91;5020239;28;20394;-70
2023/09/25 01:50:11;;;;;;;0.20;0.20;;;;;;;16.30;84.33;100583.00;5027158;28;20147;-69
2023/09/25 01:52:37;;;;;;;0.20;0.20;;;;;;;16.24;83.87;100575.09;5025883;28;20053;-69
2023/09/25 01:55:04;;;;;;;0.20;0.20;;;;;;;16.22;83.52;100580.06;5033525;28;20045;-68
2023/09/25 01:57:32;;;;;;;;;;;;;;;16.24;83.64;100589.72;5020216;28;20049;-67
2023/09/25 01:59:58;;;;;;;0.20;0.20;;;;;;;16.25;83.36;100591.34;5008009;28;19928;-69
2023/09/25 02:02:24;;;;;;;0.20;0.20;;;;;;;16.27;83.26;100574.50;5021296;28;20158;-69
2023/09/25 02:04:51;;;;;;;0.20;0.20;;;;;;;16.28;83.78;100596.28;5042666;28;20055;-72
2023/09/25 02:07:18;;;;;;;0.20;0.20;;;;;;;16.30;83.41;100596.81;5008046;28;20049;-69
2023/09/25 02:09:45;;;;;;;;;;;;;;;16.29;83.15;100591.56;5049052;28;20056;-66
2023/09/25 02:12:12;;;;;;;0.20;0.20;;;;;;;16.29;82.18;100595.16;4985295;28;19929;-69
2023/09/25 02:14:40;;;;;;;0.20;0.20;;;;;;;16.29;81.59;100591.56;5050822;28;20041;-70
2023/09/25 02:17:06;;;;;;;0.20;0.20;;;;;;;16.30;80.81;100588.53;5027362;28;20045;-67
2023/09/25 02:19:32;;;;;;;0.20;0.20;;;;;;;16.25;79.87;100593.28;5006443;28;20103;-69
2023/09/25 02:21:59;;;;;;;0.20;0.20;;;;;;;16.26;79.59;100595.75;5002918;28;20049;-67
2023/09/25 02:24:45;;;;;;;0.20;0.20;;;;;;;16.22;79.48;100608.47;5009380;28;20048;-67
2023/09/25 02:27:11;;;;;;;0.20;0.20;;;;;;;16.18;79.59;100612.94;5022817;28;20041;-68
2023/09/25 02:29:39;;;;;;;0.20;0.20;;;;;;;16.13;79.37;100610.25;5036130;28;20519;-66
2023/09/25 02:32:05;;;;;;;0.20;0.20;;;;;;;16.05;79.57;100617.22;5017597;28;20045;-67
2023/09/25 02:34:31;;;;;;;0.20;0.20;;;;;;;15.88;79.59;100603.84;5021470;28;20103;-67
2023/09/25 02:36:59;;;;;;;0.10;0.10;;;;;;;15.99;79.56;100626.66;5049719;28;20570;-67
2023/09/25 02:39:26;;;;;;;0.20;0.20;;;;;;;15.95;78.96;100626.44;5027987;28;20485;-67
2023/09/25 02:41:52;;;;;;;0.20;0.20;;;;;;;15.93;78.71;100628.66;5022303;28;20573;-67
2023/09/25 02:44:20;;;;;;;0.20;0.20;;;;;;;15.95;78.71;100633.88;5024726;28;20547;-68
2023/09/25 02:46:48;;;;;;;0.20;0.20;;;;;;;15.97;78.66;100631.63;5043646;28;20049;-69
2023/09/25 02:49:14;;;;;;;0.20;0.20;;;;;;;15.99;78.35;100645.94;5042016;28;20504;-68
2023/09/25 02:51:41;;;;;;;0.20;0.20;;;;;;;15.84;78.63;100628.44;5029000;28;20049;-67
2023/09/25 02:54:08;;;;;;;0.20;0.20;;;;;;;16.04;78.61;100645.09;5017684;28;20099;-66
2023/09/25 02:56:34;;;;;;;0.20;0.20;;;;;;;16.02;78.73;100651.72;5039000;28;20360;-66
2023/09/25 02:59:00;;;;;;;0.20;0.20;;;;;;;16.01;78.95;100655.59;5041369;28;20516;-66
2023/09/25 03:01:27;;;;;;;0.20;0.20;;;;;;;15.99;78.96;100655.06;5012843;28;20103;-68
2023/09/25 03:03:55;;;;;;;0.20;0.20;;;;;;;16.01;79.12;100660.31;5042129;28;20043;-70
2023/09/25 03:06:21;;;;;;;0.20;0.20;;;;;;;15.97;79.41;100654.53;5021772;28;20045;-67
2023/09/25 03:08:47;;;;;;;0.20;0.20;;;;;;;15.98;79.60;100664.44;4990851;28;20134;-65
2023/09/25 03:11:13;;;;;;;0.20;0.20;;;;;;;15.95;79.67;100659.53;5039118;28;20044;-66
2023/09/25 03:13:39;;;;;;;0.20;0.20;;;;;;;15.94;79.86;100668.06;5042970;28;20467;-66
2023/09/25 03:16:12;;;;;;;0.20;0.20;;;;;;;15.90;80.18;100670.56;5042223;28;20045;-67
2023/09/25 03:18:39;;;;;;;0.20;0.20;;;;;;;15.87;80.61;100663.69;5036817;28;20666;-67
2023/09/25 03:21:10;;;;;;;0.20;0.20;;;;;;;15.88;80.84;100670.84;5042726;28;20547;-66
2023/09/25 03:23:37;;;;;;;0.20;0.20;;;;;;;15.91;80.61;100680.50;5046593;28;20504;-66
2023/09/25 03:26:03;;;;;;;0.20;0.20;;;;;;;15.85;80.98;100679.72;5032698;28;20074;-67
2023/09/25 03:28:29;;;;;;;0.20;0.20;;;;;;;15.95;80.98;100687.09;5038798;28;20149;-67
2023/09/25 03:30:55;;;;;;;0.20;0.20;;;;;;;15.97;80.67;100690.38;5033640;28;20075;-67
2023/09/25 03:33:27;;;;;;;0.20;0.20;;;;;;;16.04;80.84;100691.97;5031609;28;20062;-67
2023/09/25 03:35:54;;;;;;;0.20;0.20;;;;;;;16.05;81.05;100691.69;4992170;28;20436;-67
2023/09/25 03:38:22;;;;;;;0.20;0.20;;;;;;;16.01;80.08;100696.16;5031413;28;20044;-67
2023/09/25 03:40:48;;;;;;;0.10;0.10;;;;;;;15.97;79.75;100706.09;5011011;28;20547;-67
2023/09/25 03:43:14;;;;;;;0.20;0.20;;;;;;;15.85;79.84;100710.03;5031952;28;20045;-68
2023/09/25 03:45:41;;;;;;;0.15;0.15;;;;;;;15.84;79.87;100716.66;5037669;28;20437;-67
2023/09/25 03:48:07;;;;;;;0.20;0.20;;;;;;;15.84;80.12;100715.84;5018903;28;20476;-67
2023/09/25 03:50:34;;;;;;;0.20;0.20;;;;;;;15.86;79.56;100724.63;5042151;28;20053;-67
2023/09/25 03:53:02;;;;;;;0.20;0.20;;;;;;;15.87;79.70;100731.78;5007382;28;20037;-68
2023/09/25 03:55:30;;;;;;;0.20;0.20;;;;;;;15.86;79.63;100738.44;5018687;28;20068;-67
2023/09/25 03:57:56;;;;;;;0.10;0.10;;;;;;;15.86;79.38;100739.25;5036792;28;20053;-67
2023/09/25 04:00:23;;;;;;;0.20;0.20;;;;;;;15.87;79.66;100745.59;5028847;28;20065;-67
2023/09/25 04:02:50;;;;;;;0.20;0.20;;;;;;;15.86;79.06;100738.44;5037124;28;20476;-65
2023/09/25 04:05:17;;;;;;;0.20;0.20;;;;;;;15.81;78.18;100749.50;5017560;28;20054;-67
2023/09/25 04:07:43;;;;;;;0.20;0.20;;;;;;;15.72;77.77;100741.03;5020424;28;20404;-67
2023/09/25 04:10:13;;;;;;;0.20;0.20;;;;;;;15.70;77.31;100730.28;5024626;28;20574;-69
2023/09/25 04:12:43;;;;;;;0.20;0.20;;;;;;;15.74;76.72;100749.81;4993027;28;20057;-67
2023/09/25 04:15:13;;;;;;;;;;;;;;;15.60;77.30;100733.94;5045200;28;20048;-69
2023/09/25 04:17:39;;;;;;;0.10;0.10;;;;;;;15.76;77.30;100758.63;4998995;28;19925;-66
2023/09/25 04:20:15;;;;;;;0.20;0.20;;;;;;;15.78;77.36;100752.84;5008100;28;20122;-69
2023/09/25 04:22:42;;;;;;;0.20;0.20;;;;;;;15.82;76.86;100762.19;5021422;28;20061;-69
2023/09/25 04:25:18;;;;;;;0.20;0.20;;;;;;;15.70;76.51;100744.06;5028149;28;20507;-68
2023/09/25 04:27:47;;;;;;;;;;;;;;;15.81;76.59;100768.81;5028349;28;20047;-67
2023/09/25 04:30:14;;;;;;;0.20;0.20;;;;;;;15.80;76.26;100767.16;5027697;28;19931;-69
2023/09/25 04:32:42;;;;;;;0.20;0.20;;;;;;;15.79;75.76;100771.03;5043986;28;20067;-68
2023/09/25 04:35:10;;;;;;;0.10;0.10;;;;;;;15.80;75.34;100778.19;5046114;28;20054;-70
2023/09/25 04:37:37;;;;;;;0.20;0.20;;;;;;;15.76;74.98;100772.41;5028081;28;20044;-69
2023/09/25 04:40:13;;;;;;;0.20;0.20;;;;;;;15.65;75.05;100766.16;5043522;28;20303;-70
2023/09/25 04:42:41;;;;;;;0.20;0.20;;;;;;;15.59;75.25;100767.28;5020142;28;20103;-69
2023/09/25 04:45:12;;;;;;;0.20;0.20;;;;;;;15.59;75.82;100775.53;5039719;28;20049;-69
2023/09/25 04:47:39;;;;;;;0.20;0.20;;;;;;;15.70;75.31;100777.13;5025056;28;20140;-71
2023/09/25 04:50:06;;;;;;;0.20;0.20;;;;;;;15.84;74.52;100779.25;5021493;28;20053;-72
2023/09/25 04:52:33;;;;;;;0.20;0.20;;;;;;;15.91;74.18;100790.81;5043601;28;20052;-69
2023/09/25 04:54:59;;;;;;;0.20;0.20;;;;;;;15.95;73.88;100783.63;5044320;28;20139;-71
2023/09/25 04:57:25;;;;;;;0.20;0.20;;;;;;;16.01;73.52;100795.44;5048494;28;20064;-71
2023/09/25 04:59:51;;;;;;;0.20;0.20;;;;;;;16.03;72.77;100782.19;5047649;28;20202;-70
2023/09/25 05:02:19;;;;;;;0.20;0.20;;;;;;;16.04;72.84;100794.03;5023890;28;20041;-69
2023/09/25 05:04:45;;;;;;;0.20;0.20;;;;;;;16.00;72.73;100791.84;5039597;28;20072;-68
2023/09/25 05:07:11;;;;;;;0.20;0.20;;;;;;;15.82;73.32;100784.22;5045739;28;20041;-68
2023/09/25 05:09:38;;;;;;;0.20;0.20;;;;;;;15.87;73.12;100803.50;5026811;28;20144;-69
2023/09/25 05:12:04;;;;;;;0.20;0.20;;;;;;;15.76;74.10;100802.75;5042737;28;20053;-69
2023/09/25 05:14:31;;;;;;;0.20;0.20;;;;;;;15.80;74.11;100814.84;5044226;28;20041;-70
2023/09/25 05:16:59;;;;;;;0.20;0.20;;;;;;;15.86;73.82;100813.72;5052687;28;20055;-71
2023/09/25 05:19:27;;;;;;;0.20;0.20;;;;;;;15.90;73.40;100816.72;5042240;28;20044;-69
2023/09/25 05:21:53;;;;;;;0.20;0.20;;;;;;;15.87;72.92;100815.34;4992904;28;20072;-69
2023/09/25 05:24:19;;;;;;;0.22;0.22;;;;;;;15.82;72.89;100818.13;5035778;28;20310;-70
2023/09/25 05:26:45;;;;;;;0.20;0.20;;;;;;;15.73;72.83;100812.41;5022334;28;20461;-71
2023/09/25 05:29:12;;;;;;;0.20;0.20;;;;;;;15.76;72.33;100826.72;5001442;28;20094;-70
2023/09/25 05:31:38;;;;;;;0.20;0.20;;;;;;;15.76;71.90;100823.97;5051003;28;20052;-71
2023/09/25 05:34:04;;;;;;;0.20;0.20;;;;;;;15.82;71.88;100829.16;5036716;28;20784;-70
2023/09/25 05:36:32;;;;;;;0.20;0.20;;;;;;;15.90;71.43;100824.19;5027327;28;20045;-70
2023/09/25 05:38:58;;;;;;;0.20;0.20;;;;;;;16.00;71.55;100822.19;5031887;28;20076;-70
2023/09/25 05:41:25;;;;;;;0.20;0.20;;;;;;;16.08;71.00;100826.28;5039789;28;20437;-69
2023/09/25 05:43:53;;;;;;;0.28;0.28;;;;;;;16.11;71.37;100838.69;5027777;28;20057;-68
2023/09/25 05:46:20;;;;;;;0.30;0.30;;;;;;;16.19;71.24;100828.97;5000163;28;20056;-70
2023/09/25 05:48:46;;;;;;;0.20;0.20;;;;;;;16.34;70.49;100830.75;5037935;28;20418;-70
2023/09/25 05:51:12;;;;;;;0.30;0.30;;;;;;;16.44;70.10;100827.94;5030159;28;20049;-69
2023/09/25 05:53:40;;;;;;;0.30;0.30;;;;;;;16.65;69.00;100842.38;5012697;28;20049;-70
2023/09/25 05:56:06;;;;;;;0.30;0.30;;;;;;;16.87;68.22;100833.59;5024883;28;20390;-69
2023/09/25 05:58:35;;;;;;;0.20;0.20;;;;;;;17.07;67.02;100841.97;5020264;28;20268;-70
2023/09/25 06:01:01;;;;;;;0.30;0.30;;;;;;;17.15;66.57;100846.84;5037695;28;20049;-69
2023/09/25 06:03:28;;;;;;;0.30;0.30;;;;;;;17.27;66.32;100838.97;5034052;28;20416;-69
2023/09/25 06:05:54;;;;;;;0.30;0.30;;;;;;;17.48;65.76;100840.63;5044816;28;20508;-68
2023/09/25 06:08:21;;;;;;;0.30;0.30;;;;;;;17.68;64.53;100834.84;5030309;28;20152;-69
2023/09/25 06:10:50;;;;;;;0.30;0.30;;;;;;;18.03;63.33;100844.91;5042894;28;20270;-69
2023/09/25 06:13:17;;;;;;;0.30;0.30;;;;;;;18.20;62.39;100838.84;5027079;28;20149;-68
2023/09/25 06:15:46;;;;;;;0.30;0.30;;;;;;;18.12;61.72;100837.59;5028922;28;20428;-67
2023/09/25 06:18:13;;;;;;;0.30;0.30;;;;;;;18.11;61.74;100844.25;5025871;28;20424;-68
2023/09/25 06:20:43;;;;;;;0.30;0.30;;;;;;;18.33;61.59;100846.34;5042569;28;20061;-69
2023/09/25 06:23:09;;;;;;;0.30;0.30;;;;;;;18.72;60.43;100852.63;5041758;28;20053;-70
2023/09/25 06:25:37;;;;;;;0.30;0.30;;;;;;;19.19;58.96;100855.38;5038196;28;20040;-70
2023/09/25 06:28:05;;;;;;;0.30;0.30;;;;;;;19.49;58.00;100855.88;5013265;28;20041;-67
2023/09/25 06:30:31;;;;;;;0.30;0.30;;;;;;;19.59;56.97;100854.84;5022164;28;20143;-68
2023/09/25 06:32:58;;;;;;;0.30;0.30;;;;;;;19.73;56.74;100856.78;5036214;28;20145;-69
2023/09/25 06:35:24;;;;;;;0.30;0.30;;;;;;;19.66;56.06;100859.97;5025864;28;20059;-68
2023/09/25 06:37:51;;;;;;;0.30;0.30;;;;;;;19.34;56.98;100858.97;4985695;28;20143;-70
2023/09/25 06:40:19;;;;;;;0.30;0.30;;;;;;;18.96;58.10;100865.50;5014660;28;20183;-70
2023/09/25 06:42:46;;;;;;;0.30;0.30;;;;;;;18.66;59.56;100873.22;5041844;28;20076;-70
2023/09/25 06:45:14;;;;;;;0.20;0.20;;;;;;;18.45;60.55;100875.53;5043453;28;20049;-70
2023/09/25 06:47:40;;;;;;;0.30;0.30;;;;;;;18.27;60.99;100881.63;5039108;28;20622;-70
2023/09/25 06:50:07;;;;;;;0.20;0.20;;;;;;;18.14;61.42;100879.59;5049292;28;20067;-68
2023/09/25 06:52:33;;;;;;;0.30;0.30;;;;;;;18.04;61.98;100882.53;5045231;28;20746;-69
2023/09/25 06:54:59;;;;;;;0.30;0.30;;;;;;;17.95;62.14;100883.16;5033265;28;20045;-67
2023/09/25 06:57:26;;;;;;;0.30;0.30;;;;;;;17.94;62.49;100884.25;5024278;28;20037;-70
2023/09/25 06:59:52;;;;;;;0.20;0.20;;;;;;;17.86;63.08;100891.28;5041778;28;20053;-71
2023/09/25 07:02:20;;;;;;;0.20;0.20;;;;;;;17.76;63.55;100885.91;5055147;28;20044;-68
2023/09/25 07:04:47;;;;;;;0.20;0.20;;;;;;;17.70;63.57;100906.44;5046128;28;20427;-67
2023/09/25 07:07:13;;;;;;;0.20;0.20;;;;;;;17.56;63.86;100900.81;5036320;28;20049;-69
2023/09/25 07:09:40;;;;;;;0.20;0.20;;;;;;;17.52;63.95;100902.53;5048605;28;20400;-71
2023/09/25 07:12:06;;;;;;;0.22;0.22;;;;;;;17.50;64.14;100900.06;4993473;28;20045;-69
2023/09/25 07:14:32;;;;;;;0.30;0.30;;;;;;;17.55;64.22;100913.00;5022762;28;20099;-68
2023/09/25 07:16:59;;;;;;;0.20;0.20;;;;;;;17.49;64.35;100908.66;5016984;28;20068;-68
2023/09/25 07:19:26;;;;;;;0.20;0.20;;;;;;;17.44;63.94;100918.63;5016358;28;20049;-68
2023/09/25 07:21:53;;;;;;;0.20;0.20;;;;;;;17.40;64.32;100917.59;5004926;28;20034;-68
2023/09/25 07:24:19;;;;;;;0.20;0.20;;;;;;;17.44;64.11;100917.84;5021138;28;20140;-68
2023/09/25 07:26:45;;;;;;;0.20;0.20;;;;;;;17.45;63.75;100925.00;5022182;28;20047;-68
2023/09/25 07:29:11;;;;;;;0.20;0.20;;;;;;;17.41;63.84;100930.28;5017679;28;20449;-67
2023/09/25 07:31:38;;;;;;;0.20;0.20;;;;;;;17.40;62.98;100923.13;5023687;28;20049;-69
2023/09/25 07:34:05;;;;;;;0.20;0.20;;;;;;;17.34;62.94;100917.94;5016395;28;20081;-68
2023/09/25 07:36:32;;;;;;;0.20;0.20;;;;;;;17.41;61.98;100935.00;5017413;28;20047;-69
2023/09/25 07:38:59;;;;;;;0.30;0.30;;;;;;;17.40;61.48;100936.09;5018938;28;20100;-71
2023/09/25 07:41:25;;;;;;;0.20;0.20;;;;;;;17.42;60.79;100931.13;5022619;28;20100;-68
2023/09/25 07:43:54;;;;;;;0.52;0.30;;;;;;;17.47;60.69;100935.75;5022313;28;20630;-70
2023/09/25 07:46:20;;;;;;;0.22;0.22;;;;;;;17.55;60.63;100933.16;5012287;28;20567;-70
2023/09/25 07:48:48;;;;;;;0.20;0.20;;;;;;;17.65;60.04;100937.78;5011397;28;20046;-68
2023/09/25 07:51:14;;;;;;;0.20;0.20;;;;;;;17.60;60.03;100935.06;5015800;28;20056;-68
2023/09/25 07:53:44;;;;;;;0.20;0.20;;;;;;;17.52;59.92;100942.06;5016591;28;20402;-68
2023/09/25 07:56:11;;;;;;;0.20;0.20;;;;;;;17.43;60.66;100939.09;5017502;28;20041;-68
2023/09/25 07:58:39;;;;;;;0.20;0.20;;;;;;;17.35;60.71;100950.00;5012283;28;20044;-71
2023/09/25 08:01:08;;;;;;;0.20;0.20;;;;;;;17.29;61.13;100954.75;5019636;28;20073;-70
2023/09/25 08:03:37;;;;;;;0.20;0.20;;;;;;;17.23;61.57;100950.41;5005798;28;20050;-70
2023/09/25 08:06:05;;;;;;;0.20;0.20;;;;;;;17.24;61.31;100952.03;5013661;28;20473;-68
2023/09/25 08:08:32;;;;;;;0.20;0.20;;;;;;;17.26;61.62;100956.16;5018175;28;20291;-68
2023/09/25 08:11:00;;;;;;;0.20;0.20;;;;;;;17.22;61.93;100957.03;5009914;28;20057;-70
2023/09/25 08:13:27;;;;;;;0.22;0.22;;;;;;;17.14;62.13;100956.53;5024679;28;20044;-71
2023/09/25 08:15:55;;;;;;;0.20;0.20;;;;;;;17.12;62.21;100967.06;5026383;28;20064;-68
2023/09/25 08:18:21;;;;;;;0.20;0.20;;;;;;;17.12;62.14;100961.53;5035383;28;20297;-68
2023/09/25 08:20:47;;;;;;;0.20;0.20;;;;;;;17.21;61.83;100967.25;5034801;28;20049;-68
2023/09/25 08:23:13;;;;;;;0.20;0.20;;;;;;;17.28;61.77;100964.16;5035824;28;20494;-71
2023/09/25 08:25:40;;;;;;;0.28;0.28;;;;;;;17.42;61.28;100967.06;5028801;28;20518;-70
2023/09/25 08:28:07;;;;;;;0.30;0.30;;;;;;;17.47;60.96;100964.22;5025158;28;20041;-69
2023/09/25 08:30:33;;;;;;;0.20;0.20;;;;;;;17.50;60.87;100969.16;5036050;28;20052;-66
2023/09/25 08:32:59;;;;;;;0.20;0.20;;;;;;;17.50;60.57;100977.47;5035244;28;20481;-70
2023/09/25 08:35:26;;;;;;;0.20;0.20;;;;;;;17.46;60.47;100981.09;5043218;28;20049;-70
2023/09/25 08:37:53;;;;;;;0.20;0.20;;;;;;;17.46;60.61;100976.41;5023122;28;20143;-69
2023/09/25 08:40:19;;;;;;;0.20;0.20;;;;;;;17.57;60.15;100969.66;5020116;28;20095;-68
2023/09/25 08:42:46;;;;;;;0.20;0.20;;;;;;;17.75;59.63;100985.75;5032890;28;20128;-68
2023/09/25 08:45:15;;;;;;;0.22;0.22;;;;;;;17.80;59.07;100988.50;5012515;28;20299;-67
2023/09/25 08:47:43;;;;;;;0.20;0.20;;;;;;;17.85;58.29;100997.53;5043813;28;20057;-68
2023/09/25 08:50:09;;;;;;;0.30;0.30;;;;;;;17.89;57.83;100992.22;5042420;28;20095;-67
2023/09/25 08:52:36;;;;;;;0.30;0.30;;;;;;;17.89;57.83;100986.69;5005951;28;20465;-68
2023/09/25 08:55:02;;;;;;;0.30;0.30;;;;;;;17.92;57.87;100991.63;5012603;28;20058;-67
2023/09/25 08:57:32;;;;;;;0.20;0.20;;;;;;;17.94;57.99;100992.16;5043696;28;20045;-67
2023/09/25 09:00:11;;;;;;;0.20;0.20;;;;;;;17.89;58.38;100988.66;5011315;28;20477;-68
2023/09/25 09:02:43;;;;;;;0.20;0.20;;;;;;;17.91;58.62;100994.72;5023102;28;20610;-68
2023/09/25 09:05:11;;;;;;;0.20;0.20;;;;;;;17.91;58.18;101003.03;5007785;28;20049;-68
2023/09/25 09:07:38;;;;;;;0.20;0.20;;;;;;;17.81;58.33;100998.44;5009305;28;20156;-68
2023/09/25 09:10:07;;;;;;;0.20;0.20;;;;;;;17.65;58.66;101008.84;5033924;28;20055;-71
2023/09/25 09:12:51;;;;;;;0.20;0.20;;;;;;;17.64;59.00;101008.03;5022263;28;20044;-70
2023/09/25 09:15:24;;;;;;;0.30;0.30;;;;;;;17.70;58.96;101011.53;5042812;28;20430;-70
2023/09/25 09:17:52;;;;;;;0.20;0.20;;;;;;;17.76;58.95;101015.06;5028118;28;20056;-70
2023/09/25 09:20:19;;;;;;;0.20;0.20;;;;;;;17.70;58.85;101015.13;5028284;28;20049;-70
2023/09/25 09:22:50;;;;;;;0.20;0.20;;;;;;;17.57;59.49;101016.66;5018337;28;21292;-70
2023/09/25 09:25:16;;;;;;;0.25;0.25;;;;;;;17.45;60.13;101019.00;5009213;28;20050;-70
2023/09/25 09:27:45;;;;;;;0.20;0.20;;;;;;;17.38;60.57;101024.03;5030759;28;20053;-70
2023/09/25 09:30:20;;;;;;;0.20;0.20;;;;;;;17.28;61.17;101028.56;5046149;28;20397;-68
2023/09/25 09:32:49;;;;;;;0.20;0.20;;;;;;;17.21;61.42;101028.06;5041758;28;20132;-69
2023/09/25 09:35:19;;;;;;;0.20;0.20;;;;;;;17.17;62.08;101034.44;5049035;28;20568;-68
2023/09/25 09:37:48;;;;;;;0.20;0.20;;;;;;;17.16;62.31;101036.41;5045442;28;20056;-70
2023/09/25 09:40:17;;;;;;;0.20;0.20;;;;;;;17.18;61.93;101036.13;5046098;28;20044;-70
2023/09/25 09:42:47;;;;;;;0.20;0.20;;;;;;;17.15;61.86;101034.75;5018097;28;20045;-70
2023/09/25 09:45:13;;;;;;;0.20;0.20;;;;;;;17.09;62.40;101038.66;5044301;28;20051;-71
2023/09/25 09:47:42;;;;;;;0.20;0.20;;;;;;;17.22;62.28;101045.47;5041397;28;20144;-70
2023/09/25 09:50:10;;;;;;;0.30;0.30;;;;;;;17.38;61.71;101037.84;5027889;28;20045;-70
2023/09/25 09:52:39;;;;;;;0.20;0.20;;;;;;;17.52;60.92;101046.31;4981876;28;20315;-70
2023/09/25 09:55:10;;;;;;;0.30;0.30;;;;;;;17.73;60.11;101052.47;5033951;28;20468;-70
2023/09/25 09:57:37;;;;;;;0.50;0.50;;;;;;;18.57;57.36;101042.03;5010850;28;20045;-68
2023/09/25 10:00:07;;;;;;;0.50;0.50;;;;;;;19.90;53.72;101031.75;5035530;28;20152;-68
2023/09/25 10:02:40;;;;;;;0.50;0.50;;;;;;;21.57;49.17;101040.75;5030736;28;20048;-70
2023/09/25 10:05:10;;;;;;;0.50;0.50;;;;;;;22.94;45.61;101029.75;5042184;28;20160;-70
2023/09/25 10:08:09;;;;;;;0.40;0.40;;;;;;;23.33;44.28;101041.03;5004699;28;20128;-70
2023/09/25 10:10:38;;;;;;;0.30;0.30;;;;;;;22.53;45.32;101039.41;5023104;28;20516;-70
2023/09/25 10:13:08;;;;;;;0.30;0.30;;;;;;;21.58;47.12;101047.09;5040658;28;20052;-70
2023/09/25 10:15:36;;;;;;;0.35;0.35;;;;;;;21.14;48.70;101049.63;5019005;28;20044;-70
2023/09/25 10:18:03;;;;;;;0.30;0.30;;;;;;;21.17;48.54;101041.50;5019320;28;20041;-68
2023/09/25 10:20:36;;;;;;;0.30;0.30;;;;;;;21.22;48.20;101051.63;5018706;28;20044;-70
2023/09/25 10:23:11;;;;;;;0.30;0.30;;;;;;;21.16;48.94;101050.97;5024888;28;20079;-68
2023/09/25 10:25:48;;;;;;;0.30;0.30;;;;;;;21.03;48.49;101046.28;5041944;28;20049;-68
2023/09/25 10:28:21;;;;;;;0.35;0.35;;;;;;;21.08;49.16;101049.78;5025379;28;20051;-68
2023/09/25 10:30:48;;;;;;;0.30;0.30;;;;;;;21.99;46.68;101061.88;5028987;28;20110;-68
2023/09/25 10:33:16;;;;;;;0.30;0.30;;;;;;;22.14;46.17;101052.28;5044072;28;20060;-69
2023/09/25 10:35:43;;;;;;;0.30;0.30;;;;;;;21.91;46.84;101044.84;5044013;28;20072;-68
2023/09/25 10:38:12;;;;;;;;;;;;;;;21.82;47.32;101063.44;5020267;28;20045;-69
2023/09/25 10:40:41;;;;;;;0.20;0.20;;;;;;;21.31;47.94;101063.66;5041067;28;19925;-68
2023/09/25 10:43:08;;;;;;;0.30;0.30;;;;;;;20.53;50.11;101064.66;5011555;28;20055;-68
2023/09/25 10:45:37;;;;;;;0.30;0.30;;;;;;;20.03;51.98;101063.44;5043074;28;20045;-68
2023/09/25 10:48:04;;;;;;;0.30;0.30;;;;;;;19.62;53.03;101055.91;5041370;28;20148;-68
2023/09/25 10:50:30;;;;;;;0.20;0.20;;;;;;;19.37;54.27;101053.28;5033229;28;20060;-68
2023/09/25 10:52:57;;;;;;;0.30;0.30;;;;;;;19.16;54.86;101060.28;5033738;28;20045;-68
2023/09/25 10:55:25;;;;;;;0.30;0.30;;;;;;;19.27;54.30;101051.47;5046253;28;20072;-67
2023/09/25 10:57:51;;;;;;;0.50;0.50;;;;;;;19.86;52.59;101057.66;5045337;28;20516;-68
2023/09/25 11:00:18;;;;;;;0.90;0.90;;;;;;;22.23;46.81;101055.88;5027163;28;20462;-68
2023/09/25 11:02:44;;;;;;;;;;;;;;;23.98;42.94;101056.91;5046436;28;20136;-67
2023/09/25 11:05:11;;;;;;;0.60;0.60;;;;;;;23.70;42.93;101053.72;5040408;28;20005;-68
2023/09/25 11:07:37;;;;;;;0.35;0.35;;;;;;;23.34;42.81;101055.81;5011248;28;20053;-68
2023/09/25 11:10:04;;;;;;;0.40;0.40;;;;;;;23.04;43.02;101050.91;5032278;28;20450;-68
2023/09/25 11:12:32;;;;;;;;;;;;;;;23.08;43.69;101062.22;5017927;28;20041;-68
2023/09/25 11:14:59;;;;;;;0.30;0.30;;;;;;;22.57;43.25;101051.56;5044355;28;19994;-70
2023/09/25 11:17:26;;;;;;;0.20;0.20;;;;;;;21.73;43.93;101043.13;5040169;28;20057;-70
2023/09/25 11:19:52;;;;;;;0.30;0.30;;;;;;;21.14;45.50;101060.75;5011514;28;20587;-70
2023/09/25 11:22:19;;;;;;;0.20;0.20;;;;;;;20.53;47.37;101068.22;5044384;28;20045;-69
2023/09/25 11:24:53;;;;;;;0.28;0.28;;;;;;;20.03;48.16;101065.41;5009892;28;20308;-70
2023/09/25 11:27:20;;;;;;;0.20;0.20;;;;;;;19.67;49.62;101070.50;5023055;28;20140;-69
2023/09/25 11:29:51;;;;;;;0.20;0.20;;;;;;;19.41;50.34;101062.63;5011720;28;20602;-70